createdAt,value
2024-04-26T00:00:29.701Z,1023.00
2024-04-26T00:01:29.800Z,1033.00
2024-04-26T00:02:29.888Z,1014.00
2024-04-26T00:03:30.040Z,1026.00
2024-04-26T00:04:29.989Z,1027.00
2024-04-26T00:05:30.050Z,1024.00
2024-04-26T00:06:30.096Z,1024.00
2024-04-26T00:07:30.173Z,1026.00
2024-04-26T00:08:30.236Z,1031.00
2024-04-26T00:09:30.307Z,1029.00
2024-04-26T00:10:30.356Z,1023.00
2024-04-26T00:11:30.462Z,1029.00
2024-04-26T00:12:30.550Z,1024.00
2024-04-26T00:13:30.583Z,1024.00
2024-04-26T00:14:30.668Z,1029.00
2024-04-26T00:15:30.704Z,1035.00
2024-04-26T00:16:30.802Z,1023.00
2024-04-26T00:17:30.874Z,1022.00
2024-04-26T00:18:30.940Z,1028.00
2024-04-26T00:19:30.947Z,1031.00
2024-04-26T00:20:31.008Z,1030.00
2024-04-26T00:21:31.099Z,1036.00
2024-04-26T00:22:31.147Z,1027.00
2024-04-26T00:23:31.216Z,1028.00
2024-04-26T00:24:31.254Z,1029.00
2024-04-26T00:25:31.352Z,1038.00
2024-04-26T00:26:31.426Z,1035.00
2024-04-26T00:27:31.459Z,1037.00
2024-04-26T00:28:31.551Z,1032.00
2024-04-26T00:29:31.612Z,1027.00
2024-04-26T00:30:31.666Z,1028.00
2024-04-26T00:31:31.720Z,1030.00
2024-04-26T00:32:31.933Z,1037.00
2024-04-26T00:33:31.939Z,1038.00
2024-04-26T00:34:31.900Z,1030.00
2024-04-26T00:35:32.049Z,1034.00
2024-04-26T00:36:32.047Z,1033.00
2024-04-26T00:37:32.102Z,1032.00
2024-04-26T00:38:32.223Z,1039.00
2024-04-26T00:39:32.231Z,1026.00
2024-04-26T00:40:32.284Z,1032.00
2024-04-26T00:41:32.386Z,1030.00
2024-04-26T00:42:32.407Z,1035.00
2024-04-26T00:43:32.493Z,1029.00
2024-04-26T00:44:32.549Z,1039.00
2024-04-26T00:45:32.624Z,1027.00
2024-04-26T00:46:32.673Z,1027.00
2024-04-26T00:47:32.836Z,1032.00
2024-04-26T00:48:32.911Z,1038.00
2024-04-26T00:49:32.875Z,1033.00
2024-04-26T00:50:32.946Z,1031.00
2024-04-26T00:51:32.987Z,1032.00
2024-04-26T00:52:33.062Z,1036.00
2024-04-26T00:53:33.150Z,1036.00
2024-04-26T00:54:33.173Z,1028.00
2024-04-26T00:55:33.240Z,1041.00
2024-04-26T00:56:33.287Z,1039.00
2024-04-26T00:57:33.336Z,1037.00
2024-04-26T00:58:33.394Z,1034.00
2024-04-26T00:59:33.531Z,1023.00
2024-04-26T01:00:33.506Z,1045.00
2024-04-26T01:01:33.584Z,1030.00
2024-04-26T01:02:33.637Z,1027.00
2024-04-26T01:03:33.679Z,1029.00
2024-04-26T01:04:33.730Z,1030.00
2024-04-26T01:05:33.795Z,1034.00
2024-04-26T01:06:33.775Z,1045.00
2024-04-26T01:07:33.855Z,1027.00
2024-04-26T01:08:33.951Z,1029.00
2024-04-26T01:09:33.962Z,1031.00
2024-04-26T01:10:33.999Z,1028.00
2024-04-26T01:11:34.244Z,1037.00
2024-04-26T01:12:34.134Z,1031.00
2024-04-26T01:13:34.197Z,1037.00
2024-04-26T01:14:34.260Z,1039.00
2024-04-26T01:15:34.313Z,1039.00
2024-04-26T01:16:34.360Z,1026.00
2024-04-26T01:17:34.454Z,1026.00
2024-04-26T01:18:34.616Z,1028.00
2024-04-26T01:19:34.354Z,1030.00
2024-04-26T01:20:34.407Z,1033.00
2024-04-26T01:21:34.359Z,1044.00
2024-04-26T01:22:34.368Z,1037.00
2024-04-26T01:23:34.408Z,1036.00
2024-04-26T01:24:34.354Z,1036.00
2024-04-26T01:25:34.414Z,1038.00
2024-04-26T01:26:34.540Z,1028.00
2024-04-26T01:27:34.535Z,1038.00
2024-04-26T01:28:34.589Z,1032.00
2024-04-26T01:29:34.665Z,1034.00
2024-04-26T01:30:34.698Z,1032.00
2024-04-26T01:31:34.758Z,1027.00
2024-04-26T01:32:34.929Z,1027.00
2024-04-26T01:33:34.952Z,1036.00
2024-04-26T01:34:34.923Z,1024.00
2024-04-26T01:35:35.030Z,1028.00
2024-04-26T01:36:35.012Z,1050.00
2024-04-26T01:37:35.043Z,1034.00
2024-04-26T01:38:35.168Z,1033.00
2024-04-26T01:39:35.137Z,1033.00
2024-04-26T01:40:35.129Z,1034.00
2024-04-26T01:41:35.141Z,1036.00
2024-04-26T01:42:35.122Z,1047.00
2024-04-26T01:43:35.121Z,1045.00
2024-04-26T01:44:35.226Z,1037.00
2024-04-26T01:45:35.137Z,1031.00
2024-04-26T01:46:35.284Z,1044.00
2024-04-26T01:47:35.210Z,1037.00
2024-04-26T01:48:35.366Z,1036.00
2024-04-26T01:49:35.257Z,1048.00
2024-04-26T01:50:35.348Z,1050.00
2024-04-26T01:51:35.362Z,1036.00
2024-04-26T01:52:35.375Z,1036.00
2024-04-26T01:53:35.402Z,1036.00
2024-04-26T01:54:35.388Z,1039.00
2024-04-26T01:55:35.380Z,1044.00
2024-04-26T01:56:35.391Z,1047.00
2024-04-26T01:57:35.379Z,1053.00
2024-04-26T01:58:35.390Z,1039.00
2024-04-26T01:59:35.401Z,1037.00
2024-04-26T02:00:35.385Z,1044.00
2024-04-26T02:01:35.395Z,1035.00
2024-04-26T02:02:35.595Z,1044.00
2024-04-26T02:03:35.905Z,1044.00
2024-04-26T02:04:35.417Z,1035.00
2024-04-26T02:05:35.433Z,1046.00
2024-04-26T02:06:35.391Z,1037.00
2024-04-26T02:07:35.403Z,1045.00
2024-04-26T02:08:35.445Z,1050.00
2024-04-26T02:09:35.388Z,1039.00
2024-04-26T02:10:35.384Z,1038.00
2024-04-26T02:11:35.473Z,1043.00
2024-04-26T02:12:35.392Z,1047.00
2024-04-26T02:13:35.391Z,1043.00
2024-04-26T02:14:35.469Z,1040.00
2024-04-26T02:15:35.512Z,1042.00
2024-04-26T02:16:35.637Z,1039.00
2024-04-26T02:17:35.755Z,1042.00
2024-04-26T02:18:35.739Z,1046.00
2024-04-26T02:19:35.702Z,1040.00
2024-04-26T02:20:35.788Z,1041.00
2024-04-26T02:21:35.764Z,1041.00
2024-04-26T02:22:35.778Z,1042.00
2024-04-26T02:23:35.818Z,1045.00
2024-04-26T02:24:35.779Z,1052.00
2024-04-26T02:25:35.790Z,1043.00
2024-04-26T02:26:35.857Z,1049.00
2024-04-26T02:27:35.803Z,1046.00
2024-04-26T02:28:35.806Z,1045.00
2024-04-26T02:29:35.827Z,1048.00
2024-04-26T02:30:35.832Z,1042.00
2024-04-26T02:31:35.873Z,1039.00
2024-04-26T02:32:36.054Z,1050.00
2024-04-26T02:33:36.034Z,1044.00
2024-04-26T02:34:36.033Z,1035.00
2024-04-26T02:35:36.156Z,1043.00
2024-04-26T02:36:36.166Z,1043.00
2024-04-26T02:37:36.219Z,1051.00
2024-04-26T02:38:36.298Z,1049.00
2024-04-26T02:39:36.334Z,1039.00
2024-04-26T02:40:36.394Z,1045.00
2024-04-26T02:41:36.472Z,1046.00
2024-04-26T02:42:36.515Z,1047.00
2024-04-26T02:43:36.563Z,1039.00
2024-04-26T02:44:36.650Z,1040.00
2024-04-26T02:45:36.702Z,1040.00
2024-04-26T02:46:36.765Z,1035.00
2024-04-26T02:47:36.953Z,1040.00
2024-04-26T02:48:36.946Z,1055.00
2024-04-26T02:49:36.880Z,1048.00
2024-04-26T02:50:36.949Z,1041.00
2024-04-26T02:51:36.941Z,1043.00
2024-04-26T02:52:36.995Z,1046.00
2024-04-26T02:53:37.061Z,1040.00
2024-04-26T02:54:37.057Z,1045.00
2024-04-26T02:55:37.097Z,1037.00
2024-04-26T02:56:37.138Z,1048.00
2024-04-26T02:57:37.176Z,1050.00
2024-04-26T02:58:37.245Z,1039.00
2024-04-26T02:59:37.345Z,1044.00
2024-04-26T03:00:37.425Z,1043.00
2024-04-26T03:01:37.439Z,1044.00
2024-04-26T03:02:37.656Z,1034.00
2024-04-26T03:03:37.722Z,1048.00
2024-04-26T03:04:37.529Z,1041.00
2024-04-26T03:05:37.557Z,1043.00
2024-04-26T03:06:37.580Z,1046.00
2024-04-26T03:07:37.665Z,1040.00
2024-04-26T03:08:37.808Z,1043.00
2024-04-26T03:09:37.742Z,1048.00
2024-04-26T03:10:37.785Z,1041.00
2024-04-26T03:11:37.838Z,1039.00
2024-04-26T03:12:38.006Z,1039.00
2024-04-26T03:13:37.879Z,1044.00
2024-04-26T03:14:37.958Z,1044.00
2024-04-26T03:15:37.946Z,1047.00
2024-04-26T03:16:38.016Z,1049.00
2024-04-26T03:17:38.337Z,1048.00
2024-04-26T03:18:38.177Z,1055.00
2024-04-26T03:19:38.140Z,1036.00
2024-04-26T03:20:38.213Z,1040.00
2024-04-26T03:21:38.207Z,1044.00
2024-04-26T03:22:38.212Z,1045.00
2024-04-26T03:23:38.293Z,1039.00
2024-04-26T03:24:38.262Z,1039.00
2024-04-26T03:25:38.282Z,1034.00
2024-04-26T03:26:38.381Z,1049.00
2024-04-26T03:27:38.392Z,1047.00
2024-04-26T03:28:38.437Z,1030.00
2024-04-26T03:29:38.490Z,1033.00
2024-04-26T03:30:38.472Z,1028.00
2024-04-26T03:31:38.540Z,1014.00
2024-04-26T03:32:38.576Z,1009.00
2024-04-26T03:33:38.752Z,988.00
2024-04-26T03:34:38.520Z,948.00
2024-04-26T03:35:38.515Z,906.00
2024-04-26T03:36:38.510Z,851.00
2024-04-26T03:37:38.515Z,808.00
2024-04-26T03:38:38.532Z,759.00
2024-04-26T03:39:38.499Z,710.00
2024-04-26T03:40:38.502Z,676.00
2024-04-26T03:41:38.520Z,644.00
2024-04-26T03:42:38.495Z,627.00
2024-04-26T03:43:38.508Z,610.00
2024-04-26T03:44:38.549Z,597.00
2024-04-26T03:45:38.502Z,598.00
2024-04-26T03:46:38.529Z,597.00
2024-04-26T03:47:38.734Z,593.00
2024-04-26T03:48:38.713Z,599.00
2024-04-26T03:49:38.604Z,585.00
2024-04-26T03:50:38.589Z,570.00
2024-04-26T03:51:38.531Z,553.00
2024-04-26T03:52:38.516Z,543.00
2024-04-26T03:53:38.544Z,530.00
2024-04-26T03:54:38.529Z,525.00
2024-04-26T03:55:38.548Z,510.00
2024-04-26T03:56:38.584Z,503.00
2024-04-26T03:57:38.534Z,491.00
2024-04-26T03:58:38.533Z,503.00
2024-04-26T03:59:38.535Z,513.00
2024-04-26T04:00:38.526Z,525.00
2024-04-26T04:01:38.708Z,520.00
2024-04-26T04:02:38.642Z,517.00
2024-04-26T04:03:38.746Z,510.00
2024-04-26T04:04:38.565Z,508.00
2024-04-26T04:05:38.573Z,501.00
2024-04-26T04:06:38.534Z,519.00
2024-04-26T04:07:38.547Z,528.00
2024-04-26T04:08:38.548Z,541.00
2024-04-26T04:09:38.540Z,552.00
2024-04-26T04:10:38.596Z,562.00
2024-04-26T04:11:38.681Z,575.00
2024-04-26T04:12:38.733Z,569.00
2024-04-26T04:13:38.556Z,570.00
2024-04-26T04:14:38.563Z,568.00
2024-04-26T04:15:38.539Z,565.00
2024-04-26T04:16:38.537Z,564.00
2024-04-26T04:17:38.656Z,572.00
2024-04-26T04:18:38.793Z,596.00
2024-04-26T04:19:38.546Z,601.00
2024-04-26T04:20:38.571Z,602.00
2024-04-26T04:21:38.534Z,600.00
2024-04-26T04:22:45.770Z,600.00
2024-04-26T04:23:45.881Z,600.00
2024-04-26T04:24:45.770Z,600.00
2024-04-26T04:25:45.801Z,600.00
2024-04-26T04:26:45.808Z,600.00
2024-04-26T04:27:45.783Z,605.00
2024-04-26T04:28:45.804Z,605.00
2024-04-26T04:29:45.884Z,605.00
2024-04-26T04:30:45.778Z,612.00
2024-04-26T04:31:53.011Z,600.00
2024-04-26T04:32:53.159Z,600.00
2024-04-26T04:33:53.086Z,600.00
2024-04-26T04:34:53.090Z,600.00
2024-04-26T04:35:53.244Z,600.00
2024-04-26T04:36:53.002Z,600.00
2024-04-26T04:37:53.002Z,601.00
2024-04-26T04:38:53.128Z,600.00
2024-04-26T04:39:52.999Z,606.00
2024-04-26T04:40:53.002Z,603.00
2024-04-26T04:41:53.045Z,612.00
2024-04-26T04:42:53.017Z,610.00
2024-04-26T04:43:53.015Z,605.00
2024-04-26T04:44:53.063Z,603.00
2024-04-26T04:45:53.559Z,600.00
2024-04-26T04:46:53.062Z,604.00
2024-04-26T04:47:53.249Z,598.00
2024-04-26T04:48:53.065Z,600.00
2024-04-26T04:49:53.041Z,604.00
2024-04-26T04:50:53.069Z,609.00
2024-04-26T04:51:53.015Z,612.00
2024-04-26T04:52:53.027Z,613.00
2024-04-26T04:53:53.126Z,617.00
2024-04-26T04:54:53.092Z,611.00
2024-04-26T04:55:53.099Z,612.00
2024-04-26T04:56:53.165Z,613.00
2024-04-26T04:57:53.120Z,613.00
2024-04-26T04:58:53.139Z,614.00
2024-04-26T04:59:53.217Z,620.00
2024-04-26T05:00:53.258Z,624.00
2024-04-26T05:01:53.191Z,631.00
2024-04-26T05:02:53.323Z,628.00
2024-04-26T05:03:53.462Z,623.00
2024-04-26T05:04:53.292Z,632.00
2024-04-26T05:05:53.293Z,639.00
2024-04-26T05:06:53.281Z,637.00
2024-04-26T05:07:53.309Z,630.00
2024-04-26T05:08:53.385Z,633.00
2024-04-26T05:09:53.304Z,636.00
2024-04-26T05:10:53.338Z,640.00
2024-04-26T05:11:53.455Z,645.00
2024-04-26T05:12:53.467Z,639.00
2024-04-26T05:13:53.428Z,655.00
2024-04-26T05:14:53.528Z,655.00
2024-04-26T05:15:53.474Z,660.00
2024-04-26T05:16:53.518Z,660.00
2024-04-26T05:17:53.602Z,676.00
2024-04-26T05:18:53.710Z,678.00
2024-04-26T05:19:53.646Z,705.00
2024-04-26T05:20:53.706Z,713.00
2024-04-26T05:21:53.744Z,731.00
2024-04-26T05:22:53.805Z,739.00
2024-04-26T05:23:53.885Z,746.00
2024-04-26T05:24:53.921Z,771.00
2024-04-26T05:25:53.995Z,783.00
2024-04-26T05:26:54.144Z,805.00
2024-04-26T05:27:54.125Z,806.00
2024-04-26T05:28:54.198Z,816.00
2024-04-26T05:29:54.327Z,831.00
2024-04-26T05:30:54.310Z,834.00
2024-04-26T05:31:54.460Z,859.00
2024-04-26T05:32:54.647Z,872.00
2024-04-26T05:33:54.560Z,871.00
2024-04-26T05:34:54.575Z,881.00
2024-04-26T05:35:54.719Z,885.00
2024-04-26T05:36:54.732Z,878.00
2024-04-26T05:37:54.762Z,895.00
2024-04-26T05:38:54.894Z,905.00
2024-04-26T05:39:54.830Z,906.00
2024-04-26T05:40:54.832Z,906.00
2024-04-26T05:41:54.844Z,909.00
2024-04-26T05:42:54.834Z,902.00
2024-04-26T05:43:54.848Z,879.00
2024-04-26T05:44:54.986Z,836.00
2024-04-26T05:45:54.841Z,804.00
2024-04-26T05:46:54.882Z,770.00
2024-04-26T05:47:55.032Z,721.00
2024-04-26T05:48:55.034Z,675.00
2024-04-26T05:49:54.837Z,656.00
2024-04-26T05:50:54.864Z,645.00
2024-04-26T05:51:54.857Z,639.00
2024-04-26T05:52:54.844Z,642.00
2024-04-26T05:53:54.918Z,642.00
2024-04-26T05:54:54.842Z,645.00
2024-04-26T05:55:54.843Z,652.00
2024-04-26T05:56:54.949Z,671.00
2024-04-26T05:57:54.849Z,741.00
2024-04-26T05:58:54.882Z,774.00
2024-04-26T05:59:54.872Z,808.00
2024-04-26T06:00:54.918Z,833.00
2024-04-26T06:01:54.856Z,865.00
2024-04-26T06:02:54.918Z,904.00
2024-04-26T06:03:54.946Z,943.00
2024-04-26T06:04:54.968Z,973.00
2024-04-26T06:05:54.904Z,1019.00
2024-04-26T06:06:54.927Z,1043.00
2024-04-26T06:07:54.979Z,1083.00
2024-04-26T06:08:55.050Z,1102.00
2024-04-26T06:09:55.022Z,1139.00
2024-04-26T06:10:55.104Z,1166.00
2024-04-26T06:11:55.161Z,1201.00
2024-04-26T06:12:55.091Z,1227.00
2024-04-26T06:13:55.117Z,1247.00
2024-04-26T06:14:55.137Z,1295.00
2024-04-26T06:15:55.121Z,1319.00
2024-04-26T06:16:55.145Z,1350.00
2024-04-26T06:17:55.341Z,1378.00
2024-04-26T06:18:55.485Z,1409.00
2024-04-26T06:19:55.236Z,1434.00
2024-04-26T06:20:55.330Z,1459.00
2024-04-26T06:21:55.316Z,1480.00
2024-04-26T06:22:55.388Z,1496.00
2024-04-26T06:23:55.521Z,1519.00
2024-04-26T06:24:55.503Z,1542.00
2024-04-26T06:25:55.533Z,1557.00
2024-04-26T06:26:55.652Z,1571.00
2024-04-26T06:27:55.671Z,1572.00
2024-04-26T06:28:55.740Z,1576.00
2024-04-26T06:29:55.777Z,1577.00
2024-04-26T06:30:55.747Z,1568.00
2024-04-26T06:31:55.767Z,1550.00
2024-04-26T06:32:56.083Z,1526.00
2024-04-26T06:33:55.854Z,1504.00
2024-04-26T06:34:55.754Z,1483.00
2024-04-26T06:35:55.832Z,1427.00
2024-04-26T06:36:55.764Z,1384.00
2024-04-26T06:37:55.759Z,1331.00
2024-04-26T06:38:55.830Z,1295.00
2024-04-26T06:39:55.761Z,1273.00
2024-04-26T06:40:55.803Z,1245.00
2024-04-26T06:41:55.792Z,1228.00
2024-04-26T06:42:55.800Z,1222.00
2024-04-26T06:44:03.284Z,1213.00
2024-04-26T06:44:56.823Z,1214.00
2024-04-26T06:45:55.764Z,1207.00
2024-04-26T06:46:55.762Z,1189.00
2024-04-26T06:47:55.974Z,1175.00
2024-04-26T06:48:55.982Z,1167.00
2024-04-26T06:49:55.893Z,1166.00
2024-04-26T06:50:55.888Z,1171.00
2024-04-26T06:51:55.770Z,1174.00
2024-04-26T06:52:55.781Z,1166.00
2024-04-26T06:53:55.806Z,1168.00
2024-04-26T06:54:55.769Z,1168.00
2024-04-26T06:55:55.806Z,1168.00
2024-04-26T06:56:55.889Z,1186.00
2024-04-26T06:57:55.940Z,1191.00
2024-04-26T06:58:55.995Z,1212.00
2024-04-26T06:59:56.090Z,1227.00
2024-04-26T07:00:56.173Z,1238.00
2024-04-26T07:01:56.334Z,1258.00
2024-04-26T07:02:56.469Z,1286.00
2024-04-26T07:03:56.380Z,1301.00
2024-04-26T07:04:56.716Z,1317.00
2024-04-26T07:05:56.413Z,1341.00
2024-04-26T07:06:56.421Z,1358.00
2024-04-26T07:07:56.421Z,1385.00
2024-04-26T07:08:56.484Z,1385.00
2024-04-26T07:09:56.434Z,1387.00
2024-04-26T07:10:56.444Z,1395.00
2024-04-26T07:11:56.464Z,1415.00
2024-04-26T07:12:56.421Z,1449.00
2024-04-26T07:13:56.460Z,1509.00
2024-04-26T07:14:56.614Z,1522.00
2024-04-26T07:16:01.290Z,1536.00
2024-04-26T07:16:57.432Z,1537.00
2024-04-26T07:17:56.519Z,1541.00
2024-04-26T07:18:56.597Z,1553.00
2024-04-26T07:19:56.720Z,1576.00
2024-04-26T07:20:56.505Z,1615.00
2024-04-26T07:21:56.466Z,1644.00
2024-04-26T07:23:01.879Z,1650.00
2024-04-26T07:23:57.528Z,1651.00
2024-04-26T07:24:56.441Z,1657.00
2024-04-26T07:25:56.445Z,1675.00
2024-04-26T07:26:56.482Z,1696.00
2024-04-26T07:27:56.459Z,1653.00
2024-04-26T07:29:00.868Z,1668.00
2024-04-26T07:29:57.514Z,1654.00
2024-04-26T07:30:56.467Z,1671.00
2024-04-26T07:31:56.573Z,1703.00
2024-04-26T07:32:56.677Z,1758.00
2024-04-26T07:33:56.622Z,1836.00
2024-04-26T07:34:56.473Z,1854.00
2024-04-26T07:35:56.577Z,1861.00
2024-04-26T07:36:56.492Z,1870.00
2024-04-26T07:37:56.566Z,1875.00
2024-04-26T07:38:56.645Z,1874.00
2024-04-26T07:39:56.703Z,1876.00
2024-04-26T07:40:56.760Z,1866.00
2024-04-26T07:41:56.932Z,1856.00
2024-04-26T07:42:56.907Z,1847.00
2024-04-26T07:43:56.973Z,1833.00
2024-04-26T07:44:57.078Z,1828.00
2024-04-26T07:45:57.122Z,1807.00
2024-04-26T07:46:57.148Z,1819.00
2024-04-26T07:47:57.354Z,1766.00
2024-04-26T07:48:57.339Z,1683.00
2024-04-26T07:49:57.330Z,1578.00
2024-04-26T07:50:57.250Z,1440.00
2024-04-26T07:51:57.196Z,1328.00
2024-04-26T07:52:57.211Z,1223.00
2024-04-26T07:53:57.313Z,1131.00
2024-04-26T07:54:57.216Z,1056.00
2024-04-26T07:55:57.230Z,991.00
2024-04-26T07:56:57.244Z,941.00
2024-04-26T07:57:57.201Z,919.00
2024-04-26T07:58:57.216Z,919.00
2024-04-26T07:59:57.261Z,940.00
2024-04-26T08:00:57.252Z,957.00
2024-04-26T08:01:57.220Z,992.00
2024-04-26T08:02:57.241Z,1025.00
2024-04-26T08:03:57.538Z,1044.00
2024-04-26T08:04:57.439Z,1086.00
2024-04-26T08:05:57.427Z,1119.00
2024-04-26T08:06:57.405Z,1165.00
2024-04-26T08:07:57.437Z,1192.00
2024-04-26T08:08:57.574Z,1228.00
2024-04-26T08:09:57.484Z,1260.00
2024-04-26T08:10:57.497Z,1293.00
2024-04-26T08:11:57.689Z,1324.00
2024-04-26T08:12:57.609Z,1325.00
2024-04-26T08:13:57.553Z,1334.00
2024-04-26T08:14:57.572Z,1358.00
2024-04-26T08:15:57.556Z,1392.00
2024-04-26T08:16:57.643Z,1458.00
2024-04-26T08:17:57.772Z,1481.00
2024-04-26T08:18:57.782Z,1498.00
2024-04-26T08:19:57.564Z,1522.00
2024-04-26T08:20:57.634Z,1543.00
2024-04-26T08:21:57.774Z,1563.00
2024-04-26T08:22:57.762Z,1579.00
2024-04-26T08:23:58.040Z,1584.00
2024-04-26T08:25:00.564Z,1567.00
2024-04-26T08:25:57.891Z,1527.00
2024-04-26T08:26:57.922Z,1465.00
2024-04-26T08:27:57.906Z,1410.00
2024-04-26T08:28:57.903Z,1344.00
2024-04-26T08:29:58.043Z,1259.00
2024-04-26T08:30:57.890Z,1178.00
2024-04-26T08:31:57.937Z,1076.00
2024-04-26T08:33:04.508Z,969.00
2024-04-26T08:33:59.042Z,837.00
2024-04-26T08:34:57.988Z,732.00
2024-04-26T08:35:58.189Z,655.00
2024-04-26T08:36:58.033Z,611.00
2024-04-26T08:37:57.909Z,562.00
2024-04-26T08:38:57.987Z,564.00
2024-04-26T08:39:58.636Z,575.00
2024-04-26T08:40:57.912Z,599.00
2024-04-26T08:41:57.936Z,600.00
2024-04-26T08:42:57.907Z,600.00
2024-04-26T08:43:57.917Z,604.00
2024-04-26T08:44:57.959Z,608.00
2024-04-26T08:45:57.922Z,609.00
2024-04-26T08:46:58.026Z,615.00
2024-04-26T08:47:58.102Z,618.00
2024-04-26T08:48:58.150Z,626.00
2024-04-26T08:49:58.012Z,619.00
2024-04-26T08:50:59.156Z,604.00
2024-04-26T08:51:58.090Z,597.00
2024-04-26T08:52:58.096Z,597.00
2024-04-26T08:53:58.161Z,600.00
2024-04-26T08:54:58.147Z,600.00
2024-04-26T08:55:58.191Z,600.00
2024-04-26T08:56:58.270Z,600.00
2024-04-26T08:57:58.318Z,601.00
2024-04-26T08:58:58.347Z,600.00
2024-04-26T08:59:58.371Z,590.00
2024-04-26T09:00:58.366Z,582.00
2024-04-26T09:01:58.364Z,570.00
2024-04-26T09:02:58.482Z,569.00
2024-04-26T09:03:58.554Z,561.00
2024-04-26T09:04:58.434Z,557.00
2024-04-26T09:05:58.371Z,585.00
2024-04-26T09:06:58.366Z,600.00
2024-04-26T09:07:58.363Z,605.00
2024-04-26T09:08:58.415Z,602.00
2024-04-26T09:09:58.379Z,600.00
2024-04-26T09:10:58.385Z,598.00
2024-04-26T09:11:58.502Z,605.00
2024-04-26T09:13:03.989Z,608.00
2024-04-26T09:13:59.427Z,607.00
2024-04-26T09:14:58.410Z,610.00
2024-04-26T09:15:58.387Z,618.00
2024-04-26T09:16:58.472Z,637.00
2024-04-26T09:17:58.804Z,687.00
2024-04-26T09:18:58.502Z,723.00
2024-04-26T09:19:58.422Z,781.00
2024-04-26T09:20:58.420Z,783.00
2024-04-26T09:21:58.395Z,798.00
2024-04-26T09:22:58.413Z,836.00
2024-04-26T09:23:58.451Z,788.00
2024-04-26T09:24:58.449Z,817.00
2024-04-26T09:25:58.460Z,884.00
2024-04-26T09:26:58.457Z,999.00
2024-04-26T09:27:58.432Z,1167.00
2024-04-26T09:28:58.434Z,1191.00
2024-04-26T09:29:58.443Z,1242.00
2024-04-26T09:30:58.447Z,1280.00
2024-04-26T09:32:01.077Z,1324.00
2024-04-26T09:33:01.526Z,1326.00
2024-04-26T09:33:58.603Z,1327.00
2024-04-26T09:34:58.524Z,1343.00
2024-04-26T09:35:58.662Z,1382.00
2024-04-26T09:36:58.491Z,1452.00
2024-04-26T09:37:58.440Z,1568.00
2024-04-26T09:38:58.487Z,1624.00
2024-04-26T09:39:58.474Z,1693.00
2024-04-26T09:40:58.437Z,1750.00
2024-04-26T09:41:58.521Z,1795.00
2024-04-26T09:42:58.586Z,1818.00
2024-04-26T09:43:58.515Z,1869.00
2024-04-26T09:44:58.478Z,1870.00
2024-04-26T09:45:58.472Z,1879.00
2024-04-26T09:46:58.510Z,1900.00
2024-04-26T09:47:58.648Z,1927.00
2024-04-26T09:48:58.691Z,1964.00
2024-04-26T09:49:58.492Z,1969.00
2024-04-26T09:50:58.600Z,1954.00
2024-04-26T09:51:58.486Z,1956.00
2024-04-26T09:52:58.495Z,1930.00
2024-04-26T09:53:58.548Z,1930.00
2024-04-26T09:54:58.477Z,1930.00
2024-04-26T09:55:58.492Z,1916.00
2024-04-26T09:56:58.540Z,1918.00
2024-04-26T09:57:58.503Z,1910.00
2024-04-26T09:58:58.527Z,1896.00
2024-04-26T09:59:58.562Z,1889.00
2024-04-26T10:00:58.505Z,1883.00
2024-04-26T10:01:58.523Z,1879.00
2024-04-26T10:02:58.660Z,1871.00
2024-04-26T10:03:58.684Z,1863.00
2024-04-26T10:04:58.635Z,1841.00
2024-04-26T10:05:58.629Z,1843.00
2024-04-26T10:06:58.534Z,1831.00
2024-04-26T10:07:58.587Z,1809.00
2024-04-26T10:08:58.576Z,1800.00
2024-04-26T10:09:58.558Z,1780.00
2024-04-26T10:10:58.539Z,1763.00
2024-04-26T10:11:58.618Z,1746.00
2024-04-26T10:12:58.539Z,1739.00
2024-04-26T10:13:58.598Z,1733.00
2024-04-26T10:14:58.672Z,1718.00
2024-04-26T10:15:58.704Z,1702.00
2024-04-26T10:16:58.761Z,1708.00
2024-04-26T10:17:58.940Z,1699.00
2024-04-26T10:18:59.062Z,1697.00
2024-04-26T10:19:58.955Z,1685.00
2024-04-26T10:20:59.022Z,1686.00
2024-04-26T10:21:59.082Z,1675.00
2024-04-26T10:22:59.147Z,1664.00
2024-04-26T10:23:59.334Z,1670.00
2024-04-26T10:24:59.369Z,1671.00
2024-04-26T10:25:59.343Z,1649.00
2024-04-26T10:26:59.428Z,1666.00
2024-04-26T10:27:59.588Z,1669.00
2024-04-26T10:28:59.520Z,1663.00
2024-04-26T10:29:59.629Z,1658.00
2024-04-26T10:30:59.660Z,1654.00
2024-04-26T10:31:59.736Z,1648.00
2024-04-26T10:32:59.794Z,1650.00
2024-04-26T10:34:00.084Z,1637.00
2024-04-26T10:34:59.863Z,1642.00
2024-04-26T10:36:00.004Z,1624.00
2024-04-26T10:36:59.979Z,1633.00
2024-04-26T10:38:00.052Z,1596.00
2024-04-26T10:39:00.071Z,1616.00
2024-04-26T10:40:00.179Z,1618.00
2024-04-26T10:41:00.160Z,1604.00
2024-04-26T10:42:00.274Z,1612.00
2024-04-26T10:43:00.284Z,1593.00
2024-04-26T10:44:00.355Z,1610.00
2024-04-26T10:45:00.494Z,1607.00
2024-04-26T10:46:00.422Z,1610.00
2024-04-26T10:47:00.478Z,1612.00
2024-04-26T10:48:00.673Z,1623.00
2024-04-26T10:49:00.796Z,1620.00
2024-04-26T10:50:00.894Z,1612.00
2024-04-26T10:51:00.824Z,1627.00
2024-04-26T10:52:00.791Z,1622.00
2024-04-26T10:53:00.846Z,1638.00
2024-04-26T10:54:00.995Z,1641.00
2024-04-26T10:55:00.919Z,1642.00
2024-04-26T10:56:00.957Z,1629.00
2024-04-26T10:57:01.100Z,1654.00
2024-04-26T10:58:01.080Z,1624.00
2024-04-26T10:59:01.136Z,1645.00
2024-04-26T11:00:01.302Z,1659.00
2024-04-26T11:01:01.289Z,1651.00
2024-04-26T11:02:01.325Z,1635.00
2024-04-26T11:03:01.451Z,1651.00
2024-04-26T11:04:02.005Z,1657.00
2024-04-26T11:05:01.694Z,1645.00
2024-04-26T11:06:01.583Z,1645.00
2024-04-26T11:07:01.516Z,1647.00
2024-04-26T11:08:01.559Z,1647.00
2024-04-26T11:09:01.606Z,1660.00
2024-04-26T11:10:01.519Z,1672.00
2024-04-26T11:11:01.547Z,1653.00
2024-04-26T11:12:01.691Z,1665.00
2024-04-26T11:13:01.561Z,1675.00
2024-04-26T11:14:01.564Z,1672.00
2024-04-26T11:15:01.653Z,1664.00
2024-04-26T11:16:01.629Z,1671.00
2024-04-26T11:17:01.691Z,1659.00
2024-04-26T11:18:01.917Z,1660.00
2024-04-26T11:19:01.915Z,1663.00
2024-04-26T11:20:01.807Z,1668.00
2024-04-26T11:21:01.765Z,1683.00
2024-04-26T11:22:01.733Z,1693.00
2024-04-26T11:23:01.704Z,1695.00
2024-04-26T11:24:01.760Z,1703.00
2024-04-26T11:25:01.704Z,1702.00
2024-04-26T11:26:01.704Z,1706.00
2024-04-26T11:27:01.727Z,1714.00
2024-04-26T11:28:01.699Z,1722.00
2024-04-26T11:29:01.730Z,1716.00
2024-04-26T11:30:01.873Z,1726.00
2024-04-26T11:31:01.778Z,1737.00
2024-04-26T11:32:01.897Z,1734.00
2024-04-26T11:33:02.053Z,1740.00
2024-04-26T11:34:02.011Z,1743.00
2024-04-26T11:35:02.175Z,1739.00
2024-04-26T11:36:02.028Z,1755.00
2024-04-26T11:37:02.041Z,1759.00
2024-04-26T11:38:02.034Z,1759.00
2024-04-26T11:39:02.097Z,1760.00
2024-04-26T11:40:02.066Z,1766.00
2024-04-26T11:41:02.049Z,1776.00
2024-04-26T11:42:02.110Z,1794.00
2024-04-26T11:43:02.035Z,1803.00
2024-04-26T11:44:02.054Z,1811.00
2024-04-26T11:45:02.179Z,1814.00
2024-04-26T11:46:02.049Z,1822.00
2024-04-26T11:47:02.061Z,1826.00
2024-04-26T11:48:02.323Z,1823.00
2024-04-26T11:49:02.314Z,1839.00
2024-04-26T11:50:02.387Z,1833.00
2024-04-26T11:51:02.139Z,1816.00
2024-04-26T11:52:02.080Z,1846.00
2024-04-26T11:53:02.125Z,1840.00
2024-04-26T11:54:02.216Z,1854.00
2024-04-26T11:55:02.207Z,1854.00
2024-04-26T11:56:02.187Z,1854.00
2024-04-26T11:57:05.236Z,1858.00
2024-04-26T11:58:02.239Z,1858.00
2024-04-26T11:59:02.261Z,1859.00
2024-04-26T12:00:02.360Z,1859.00
2024-04-26T12:01:02.305Z,1866.00
2024-04-26T12:02:02.269Z,1856.00
2024-04-26T12:03:02.280Z,1875.00
2024-04-26T12:04:02.284Z,1871.00
2024-04-26T12:05:02.289Z,1878.00
2024-04-26T12:06:02.401Z,1879.00
2024-04-26T12:07:02.256Z,1874.00
2024-04-26T12:08:02.302Z,1881.00
2024-04-26T12:09:02.300Z,1871.00
2024-04-26T12:10:02.273Z,1872.00
2024-04-26T12:11:02.293Z,1878.00
2024-04-26T12:12:02.267Z,1870.00
2024-04-26T12:13:02.258Z,1865.00